Time;durP1;ratioP1;P1;durP2;ratioP2;P2;SDS_P1;SDS_P2;PMS_P1;PMS_P2;Temp;Humidity;BMP_temperature;BMP_pressure;BME280_temperature;BME280_humidity;BME280_pressure;Samples;Min_cycle;Max_cycle;Signal;HPM_P1;HPM_P2
2021/01/21 00:00:44;;;;;;;;;;;;;;;-22.39;84.44;102127.49;1829704;78;20200;-41
2021/01/21 00:03:12;;;;;;;;;;;;;;;-22.42;84.40;102115.55;1797583;78;20177;-40
2021/01/21 00:05:42;;;;;;;;;;;;;;;-22.42;84.37;102117.13;1829518;78;20172;-39
2021/01/21 00:08:10;;;;;;;;;;;;;;;-22.46;84.33;102115.84;1829532;78;20188;-40
2021/01/21 00:10:37;;;;;;;;;;;;;;;-22.48;84.29;102112.24;1829615;78;20184;-40
2021/01/21 00:13:05;;;;;;;;;;;;;;;-22.51;84.26;102103.50;1832618;78;20152;-39
2021/01/21 00:15:32;;;;;;;;;;;;;;;-22.54;84.20;102105.21;1818857;78;20125;-38
2021/01/21 00:18:00;;;;;;;;;;;;;;;-22.58;84.18;102101.77;1819251;78;20125;-38
2021/01/21 00:20:28;;;;;;;;;;;;;;;-22.59;84.17;102096.59;1819028;78;20146;-39
2021/01/21 00:22:57;;;;;;;;;;;;;;;-22.60;84.15;102098.52;1819219;78;20184;-39
2021/01/21 00:25:25;;;;;;;;;;;;;;;-22.61;84.14;102105.08;1819011;78;20241;-46
2021/01/21 00:27:53;;;;;;;;;;;;;;;-22.62;84.10;102109.83;1818981;78;20161;-39
2021/01/21 00:30:22;;;;;;;;;;;;;;;-22.61;84.16;102115.01;1818959;78;20636;-39
2021/01/21 00:32:50;;;;;;;;;;;;;;;-22.59;84.16;102111.50;1818827;78;20137;-39
2021/01/21 00:35:18;;;;;;;;;;;;;;;-22.63;84.09;102117.62;1818814;78;20184;-38
2021/01/21 00:37:46;;;;;;;;;;;;;;;-22.72;84.00;102122.27;1818807;78;20300;-41
2021/01/21 00:40:14;;;;;;;;;;;;;;;-22.79;83.91;102122.16;1819034;78;20149;-39
2021/01/21 00:42:42;;;;;;;;;;;;;;;-22.85;83.85;102114.22;1818911;78;20267;-39
2021/01/21 00:45:10;;;;;;;;;;;;;;;-22.89;83.80;102116.95;1818864;78;20165;-40
2021/01/21 00:47:38;;;;;;;;;;;;;;;-22.95;83.71;102122.34;1818781;78;20144;-40
2021/01/21 00:50:08;;;;;;;;;;;;;;;-23.02;83.61;102118.46;1818806;78;20355;-39
2021/01/21 00:52:35;;;;;;;;;;;;;;;-23.09;83.52;102123.27;1818774;78;20129;-40
2021/01/21 00:55:05;;;;;;;;;;;;;;;-23.15;83.44;102118.37;1818788;78;20168;-41
2021/01/21 00:57:32;;;;;;;;;;;;;;;-23.20;83.40;102116.86;1818847;78;20406;-40
2021/01/21 01:00:00;;;;;;;;;;;;;;;-23.23;83.34;102116.08;1819044;79;20416;-39
2021/01/21 01:02:28;;;;;;;;;;;;;;;-23.28;83.30;102131.93;1819004;78;20142;-39
2021/01/21 01:04:56;;;;;;;;;;;;;;;-23.31;83.27;102125.33;1818966;78;20388;-39
2021/01/21 01:07:24;;;;;;;;;;;;;;;-23.32;83.26;102123.87;1819123;78;20259;-39
2021/01/21 01:09:52;;;;;;;;;;;;;;;-23.36;83.22;102129.97;1818885;78;20201;-39
2021/01/21 01:12:22;;;;;;;;;;;;;;;-23.39;83.19;102128.33;1819202;79;20137;-52
2021/01/21 01:14:50;;;;;;;;;;;;;;;-23.41;83.17;102128.79;1818746;78;20401;-40
2021/01/21 01:17:18;;;;;;;;;;;;;;;-23.43;83.17;102122.41;1789490;78;20137;-40
2021/01/21 01:19:49;;;;;;;;;;;;;;;-23.40;83.20;102129.01;1819014;78;20141;-40
2021/01/21 01:22:17;;;;;;;;;;;;;;;-23.38;83.21;102126.41;1818784;78;20418;-39
2021/01/21 01:24:45;;;;;;;;;;;;;;;-23.33;83.25;102130.41;1818651;78;20176;-38
2021/01/21 01:27:13;;;;;;;;;;;;;;;-23.29;83.30;102125.51;1818879;78;20141;-40
2021/01/21 01:29:45;;;;;;;;;;;;;;;-23.25;83.30;102127.75;1820542;77;20123;-40
2021/01/21 01:32:14;;;;;;;;;;;;;;;-23.22;83.31;102123.19;1850373;77;20182;-39
2021/01/21 01:34:45;;;;;;;;;;;;;;;-23.21;83.32;102126.23;1851418;77;20186;-39
2021/01/21 01:37:14;;;;;;;;;;;;;;;-23.20;83.32;102118.09;1852026;77;20134;-39
2021/01/21 01:39:47;;;;;;;;;;;;;;;-23.18;83.32;102131.28;1851247;77;20182;-39
2021/01/21 01:42:19;;;;;;;;;;;;;;;-23.17;83.31;102123.50;1851874;77;20183;-39
2021/01/21 01:44:48;;;;;;;;;;;;;;;-23.18;83.25;102122.94;1852049;77;20409;-38
2021/01/21 01:47:16;;;;;;;;;;;;;;;-23.21;83.22;102122.50;1852093;77;20436;-39
2021/01/21 01:49:44;;;;;;;;;;;;;;;-23.23;83.17;102127.63;1852091;77;20178;-40
2021/01/21 01:52:12;;;;;;;;;;;;;;;-23.26;83.12;102119.41;1851968;77;20135;-39
2021/01/21 01:54:41;;;;;;;;;;;;;;;-23.28;83.09;102131.93;1815650;77;20464;-40
2021/01/21 01:57:22;;;;;;;;;;;;;;;-23.30;83.06;102138.29;1805779;77;20162;-40
2021/01/21 01:59:54;;;;;;;;;;;;;;;-23.32;83.03;102140.89;1852278;77;20159;-40
2021/01/21 02:02:23;;;;;;;;;;;;;;;-23.36;82.96;102131.59;1821788;77;20420;-41
2021/01/21 02:04:53;;;;;;;;;;;;;;;-23.39;82.92;102131.15;1852215;77;20139;-39
2021/01/21 02:07:24;;;;;;;;;;;;;;;-23.42;82.88;102135.33;1850724;77;20194;-39
2021/01/21 02:09:55;;;;;;;;;;;;;;;-23.44;82.88;102129.28;1851152;77;20119;-40
2021/01/21 02:12:49;;;;;;;;;;;;;;;-23.45;82.85;102131.20;1851980;77;20210;-39
2021/01/21 02:15:24;;;;;;;;;;;;;;;-23.46;82.82;102122.34;1852149;77;20378;-40
2021/01/21 02:18:06;;;;;;;;;;;;;;;-23.49;82.77;102126.52;1852125;77;20158;-39
2021/01/21 02:21:03;;;;;;;;;;;;;;;-23.52;82.71;102120.25;1852270;77;20489;-40
2021/01/21 02:26:55;;;;;;;;;;;;;;;-23.54;82.64;102126.23;1919739;74;20225;-39
2021/01/21 02:29:36;;;;;;;;;;;;;;;-23.60;82.62;102124.15;1891464;75;20179;-40
2021/01/21 02:32:10;;;;;;;;;;;;;;;-23.59;82.60;102118.52;1903163;75;20266;-40
2021/01/21 02:35:08;;;;;;;;;;;;;;;-23.57;82.63;102122.11;1901173;75;20155;-39
2021/01/21 02:37:37;;;;;;;;;;;;;;;-23.56;82.63;102121.06;1903426;75;20172;-39
2021/01/21 02:40:07;;;;;;;;;;;;;;;-23.54;82.62;102121.28;1903238;75;20540;-40
2021/01/21 02:42:55;;;;;;;;;;;;;;;-23.51;82.59;102121.72;1873190;75;20148;-39
2021/01/21 02:45:25;;;;;;;;;;;;;;;-23.44;82.62;102117.22;1903199;75;20120;-40
2021/01/21 02:47:55;;;;;;;;;;;;;;;-23.40;82.62;102118.19;1903207;75;20227;-39
2021/01/21 02:50:25;;;;;;;;;;;;;;;-23.37;82.61;102117.05;1868140;75;20135;-40
2021/01/21 02:53:02;;;;;;;;;;;;;;;-23.33;82.59;102125.45;1903079;75;20191;-39
2021/01/21 02:55:38;;;;;;;;;;;;;;;-23.29;82.57;102125.51;1903466;75;20175;-40
2021/01/21 02:58:30;;;;;;;;;;;;;;;-23.27;82.56;102132.83;1903391;75;20446;-39
2021/01/21 03:01:02;;;;;;;;;;;;;;;-23.25;82.57;102131.47;1903150;75;20120;-38
2021/01/21 03:03:31;;;;;;;;;;;;;;;-23.24;82.54;102134.51;1903178;75;20187;-40
2021/01/21 03:06:01;;;;;;;;;;;;;;;-23.28;82.43;102129.79;1903023;75;20139;-40
2021/01/21 03:08:34;;;;;;;;;;;;;;;-23.36;82.32;102128.73;1903406;75;20140;-41
2021/01/21 03:11:12;;;;;;;;;;;;;;;-23.44;82.24;102133.01;1903239;75;20147;-40
2021/01/21 03:13:43;;;;;;;;;;;;;;;-23.51;82.18;102125.44;1903164;75;20180;-40
2021/01/21 03:16:11;;;;;;;;;;;;;;;-23.55;82.15;102124.09;1903299;75;20223;-38
2021/01/21 03:18:40;;;;;;;;;;;;;;;-23.57;82.14;102127.97;1903097;75;20136;-39
2021/01/21 03:21:08;;;;;;;;;;;;;;;-23.57;82.13;102131.69;1903237;75;20517;-40
2021/01/21 03:23:43;;;;;;;;;;;;;;;-23.57;82.13;102130.45;1902612;75;20136;-45
2021/01/21 03:26:13;;;;;;;;;;;;;;;-23.57;82.11;102126.73;1902790;75;20159;-38
2021/01/21 03:28:43;;;;;;;;;;;;;;;-23.54;82.09;102127.48;1903148;75;20147;-40
2021/01/21 03:31:12;;;;;;;;;;;;;;;-23.54;82.06;102125.00;1903052;75;20112;-39
2021/01/21 03:33:40;;;;;;;;;;;;;;;-23.55;82.01;102126.58;1903126;75;20151;-40
2021/01/21 03:36:10;;;;;;;;;;;;;;;-23.58;81.98;102121.55;1903014;75;20127;-38
2021/01/21 03:38:38;;;;;;;;;;;;;;;-23.61;81.92;102125.73;1868120;75;20176;-40
2021/01/21 03:41:25;;;;;;;;;;;;;;;-23.68;81.80;102133.34;1902679;75;20140;-40
2021/01/21 03:44:09;;;;;;;;;;;;;;;-23.73;81.78;102131.81;1827195;78;20149;-40
2021/01/21 03:46:39;;;;;;;;;;;;;;;-23.77;81.75;102125.89;1879729;75;20120;-40
2021/01/21 03:49:10;;;;;;;;;;;;;;;-23.76;81.72;102140.08;1902375;75;20144;-46
2021/01/21 03:51:39;;;;;;;;;;;;;;;-23.73;81.75;102136.43;1900010;75;20120;-38
2021/01/21 03:54:22;;;;;;;;;;;;;;;-23.69;81.73;102132.44;1900459;75;20164;-38
2021/01/21 03:56:50;;;;;;;;;;;;;;;-23.67;81.71;102138.52;1868272;75;20207;-39
2021/01/21 03:59:19;;;;;;;;;;;;;;;-23.69;81.67;102136.53;1902591;75;20176;-40
2021/01/21 04:01:49;;;;;;;;;;;;;;;-23.67;81.69;102130.18;1901539;75;20136;-39
2021/01/21 04:04:18;;;;;;;;;;;;;;;-23.68;81.70;102134.58;1902667;75;20433;-41
2021/01/21 04:06:46;;;;;;;;;;;;;;;-23.69;81.70;102137.77;1875664;75;20195;-39
2021/01/21 04:09:15;;;;;;;;;;;;;;;-23.71;81.71;102139.13;1867538;76;20235;-38
2021/01/21 04:11:54;;;;;;;;;;;;;;;-23.71;81.71;102134.17;1867890;76;20168;-39
2021/01/21 04:14:22;;;;;;;;;;;;;;;-23.70;81.73;102146.79;1867347;77;20132;-40
2021/01/21 04:16:51;;;;;;;;;;;;;;;-23.71;81.72;102148.71;1867521;76;20251;-51
2021/01/21 04:19:19;;;;;;;;;;;;;;;-23.72;81.70;102143.53;1867629;76;20485;-44
2021/01/21 04:21:50;;;;;;;;;;;;;;;-23.75;81.67;102145.23;1868160;75;20138;-40
2021/01/21 04:24:20;;;;;;;;;;;;;;;-23.75;81.66;102140.27;1867219;77;20118;-50
2021/01/21 04:26:49;;;;;;;;;;;;;;;-23.74;81.66;102142.07;1866815;77;20141;-40
2021/01/21 04:29:19;;;;;;;;;;;;;;;-23.72;81.69;102148.48;1867261;76;20132;-46
2021/01/21 04:31:48;;;;;;;;;;;;;;;-23.73;81.65;102152.55;1867172;76;20129;-40
2021/01/21 04:34:18;;;;;;;;;;;;;;;-23.73;81.63;102146.69;1867433;76;20133;-40
2021/01/21 04:36:46;;;;;;;;;;;;;;;-23.75;81.63;102147.70;1867330;76;20480;-42
2021/01/21 04:39:16;;;;;;;;;;;;;;;-23.78;81.59;102148.53;1879961;75;20172;-41
2021/01/21 04:41:44;;;;;;;;;;;;;;;-23.78;81.60;102146.39;1902370;75;20171;-40
2021/01/21 04:44:17;;;;;;;;;;;;;;;-23.76;81.58;102149.66;1822749;75;20300;-41
2021/01/21 04:46:48;;;;;;;;;;;;;;;-23.76;81.58;102150.00;1866803;77;20150;-40
2021/01/21 04:49:19;;;;;;;;;;;;;;;-23.73;81.61;102150.41;1808555;77;20134;-40
2021/01/21 04:51:49;;;;;;;;;;;;;;;-23.75;81.57;102153.91;1884351;75;20136;-39
2021/01/21 04:54:22;;;;;;;;;;;;;;;-23.73;81.56;102157.84;1901347;75;20132;-40
2021/01/21 04:56:56;;;;;;;;;;;;;;;-23.75;81.56;102146.47;1861849;75;20172;-40
2021/01/21 04:59:41;;;;;;;;;;;;;;;-23.72;81.60;102146.91;1811068;77;20211;-40
2021/01/21 05:02:11;;;;;;;;;;;;;;;-23.69;81.61;102142.36;1859745;76;20494;-41
2021/01/21 05:04:41;;;;;;;;;;;;;;;-23.66;81.65;102149.00;1875360;75;20163;-40
2021/01/21 05:07:10;;;;;;;;;;;;;;;-23.61;81.64;102152.11;1867094;76;20157;-41
2021/01/21 05:09:39;;;;;;;;;;;;;;;-23.57;81.66;102155.25;1867299;75;20122;-39
2021/01/21 05:12:12;;;;;;;;;;;;;;;-23.55;81.66;102156.67;1837246;75;20137;-40
2021/01/21 05:14:48;;;;;;;;;;;;;;;-23.50;81.72;102167.26;1902263;75;20167;-39
2021/01/21 05:17:21;;;;;;;;;;;;;;;-23.46;81.77;102171.57;1850416;75;20418;-40
2021/01/21 05:19:53;;;;;;;;;;;;;;;-23.39;81.81;102173.31;1867469;75;20154;-41
2021/01/21 05:22:40;;;;;;;;;;;;;;;-23.36;81.85;102175.00;1873114;75;20408;-42
2021/01/21 05:25:26;;;;;;;;;;;;;;;-23.29;81.92;102175.13;1867323;77;20292;-41
2021/01/21 05:28:13;;;;;;;;;;;;;;;-23.25;81.90;102176.13;1867162;77;20170;-41
2021/01/21 05:31:00;;;;;;;;;;;;;;;-23.23;81.83;102183.45;1866535;75;20191;-41
2021/01/21 05:33:41;;;;;;;;;;;;;;;-23.24;81.75;102181.65;1872021;75;20210;-41
2021/01/21 05:36:11;;;;;;;;;;;;;;;-23.24;81.70;102190.34;1870240;75;20280;-40
2021/01/21 05:38:44;;;;;;;;;;;;;;;-23.21;81.72;102185.44;1873641;75;20198;-41
2021/01/21 05:41:14;;;;;;;;;;;;;;;-23.08;81.83;102194.56;1852509;76;20152;-41
2021/01/21 05:44:03;;;;;;;;;;;;;;;-22.99;81.84;102195.84;1866546;75;20519;-41
2021/01/21 05:46:35;;;;;;;;;;;;;;;-22.87;81.91;102190.97;1866264;75;20281;-42
2021/01/21 05:49:03;;;;;;;;;;;;;;;-22.73;82.01;102195.00;1846541;75;20135;-41
2021/01/21 05:51:32;;;;;;;;;;;;;;;-22.55;82.12;102195.66;1877087;75;20132;-42
2021/01/21 05:54:03;;;;;;;;;;;;;;;-22.37;82.23;102196.56;1872976;75;20146;-41
2021/01/21 05:56:35;;;;;;;;;;;;;;;-22.18;82.32;102201.17;1848474;77;20245;-42
2021/01/21 05:59:05;;;;;;;;;;;;;;;-22.00;82.38;102202.77;1795193;77;20168;-50
2021/01/21 06:01:34;;;;;;;;;;;;;;;-21.86;82.40;102202.09;1809971;77;20204;-43
2021/01/21 06:04:03;;;;;;;;;;;;;;;-21.73;82.40;102198.95;1834281;77;20458;-42
2021/01/21 06:06:32;;;;;;;;;;;;;;;-21.60;82.45;102199.89;1815168;77;20339;-41
2021/01/21 06:09:00;;;;;;;;;;;;;;;-21.42;82.56;102200.52;1807062;77;20130;-41
2021/01/21 06:11:30;;;;;;;;;;;;;;;-21.28;82.60;102198.25;1774439;77;20137;-42
2021/01/21 06:13:57;;;;;;;;;;;;;;;-21.09;82.70;102206.14;1805569;77;20146;-42
2021/01/21 06:16:25;;;;;;;;;;;;;;;-20.91;82.75;102205.14;1840582;77;20145;-42
2021/01/21 06:18:54;;;;;;;;;;;;;;;-20.74;82.80;102194.54;1828840;78;20434;-43
2021/01/21 06:21:25;;;;;;;;;;;;;;;-20.59;82.83;102187.77;1835376;77;20197;-43
2021/01/21 06:26:50;;;;;;;;;;;;;;;-20.18;82.87;102179.31;1897384;74;20200;-42
2021/01/21 06:29:18;;;;;;;;;;;;;;;-20.08;82.88;102190.12;1860609;76;20416;-42
2021/01/21 06:31:50;;;;;;;;;;;;;;;-19.98;82.85;102185.22;1872233;75;20308;-42
2021/01/21 06:34:20;;;;;;;;;;;;;;;-19.83;82.88;102184.12;1880181;75;20206;-42
2021/01/21 06:36:51;;;;;;;;;;;;;;;-19.62;82.94;102186.81;1877876;75;20203;-43
2021/01/21 06:39:31;;;;;;;;;;;;;;;-19.36;83.01;102185.02;1867894;76;20202;-41
2021/01/21 06:41:59;;;;;;;;;;;;;;;-19.13;83.00;102189.98;1868471;75;20166;-42
2021/01/21 06:44:30;;;;;;;;;;;;;;;-18.95;82.87;102200.98;1868056;75;20255;-42
2021/01/21 06:46:59;;;;;;;;;;;;;;;-18.81;82.80;102194.83;1851615;75;20282;-42
2021/01/21 06:49:31;;;;;;;;;;;;;;;-18.70;82.63;102183.62;1826871;75;20198;-49
2021/01/21 06:52:01;;;;;;;;;;;;;;;-18.62;82.50;102182.59;1879256;75;20270;-42
2021/01/21 06:54:29;;;;;;;;;;;;;;;-18.58;82.28;102195.14;1839183;75;20243;-41
2021/01/21 06:56:57;;;;;;;;;;;;;;;-18.56;82.13;102187.80;1874748;75;20145;-42
2021/01/21 06:59:51;;;;;;;;;;;;;;;-18.45;82.10;102181.22;1867832;75;20163;-42
2021/01/21 07:02:42;;;;;;;;;;;;;;;-18.30;82.13;102184.29;1872336;75;20185;-43
2021/01/21 07:05:13;;;;;;;;;;;;;;;-18.21;81.93;102181.30;1872436;75;20259;-42
2021/01/21 07:07:56;;;;;;;;;;;;;;;-18.15;81.79;102174.88;1874500;75;20262;-42
2021/01/21 07:10:47;;;;;;;;;;;;;;;-18.08;81.69;102177.75;1869631;75;20176;-43
2021/01/21 07:13:18;;;;;;;;;;;;;;;-18.05;81.46;102176.52;1871962;75;20152;-43
2021/01/21 07:15:51;;;;;;;;;;;;;;;-17.94;81.56;102178.68;1869623;75;20233;-44
2021/01/21 07:18:22;;;;;;;;;;;;;;;-17.79;81.51;102180.86;1872144;75;20128;-43
2021/01/21 07:21:06;;;;;;;;;;;;;;;-17.68;81.35;102185.51;1870170;75;20388;-42
2021/01/21 07:23:45;;;;;;;;;;;;;;;-17.65;81.15;102174.58;1876615;75;20208;-44
2021/01/21 07:26:34;;;;;;;;;;;;;;;-17.53;81.09;102172.25;1867519;75;20392;-42
2021/01/21 07:29:14;;;;;;;;;;;;;;;-17.27;81.17;102169.37;1867686;75;20181;-42
2021/01/21 07:32:01;;;;;;;;;;;;;;;-16.92;81.12;102175.92;1870485;75;20304;-44
2021/01/21 07:34:39;;;;;;;;;;;;;;;-16.71;80.83;102173.00;1870364;75;20175;-43
2021/01/21 07:37:19;;;;;;;;;;;;;;;-16.62;80.31;102186.61;1868549;75;20205;-42
2021/01/21 07:40:08;;;;;;;;;;;;;;;-16.52;79.98;102182.22;1868664;75;20297;-42
2021/01/21 07:42:46;;;;;;;;;;;;;;;-16.40;79.54;102179.83;1844940;75;20281;-42
2021/01/21 07:45:23;;;;;;;;;;;;;;;-16.27;79.23;102172.06;1842954;77;20142;-42
2021/01/21 07:47:50;;;;;;;;;;;;;;;-16.00;79.38;102172.64;1867975;75;20643;-42
2021/01/21 07:50:23;;;;;;;;;;;;;;;-15.62;79.41;102173.48;1867459;75;20208;-43
2021/01/21 07:52:56;;;;;;;;;;;;;;;-15.31;79.28;102176.06;1866737;77;20315;-43
2021/01/21 07:55:30;;;;;;;;;;;;;;;-15.13;78.60;102180.56;1843622;75;20189;-42
2021/01/21 07:58:36;;;;;;;;;;;;;;;-15.01;78.05;102186.91;1868788;75;20308;-42
2021/01/21 08:01:10;;;;;;;;;;;;;;;-14.97;77.35;102189.05;1877928;75;20201;-42
2021/01/21 08:03:42;;;;;;;;;;;;;;;-14.92;76.64;102189.89;1876590;75;20387;-42
2021/01/21 08:06:23;;;;;;;;;;;;;;;-14.79;76.27;102194.25;1872682;75;20143;-43
2021/01/21 08:09:24;;;;;;;;;;;;;;;-14.62;75.78;102180.20;1888519;74;20280;-48
2021/01/21 08:11:54;;;;;;;;;;;;;;;-14.59;75.36;102172.10;1858892;75;20188;-43
2021/01/21 08:14:22;;;;;;;;;;;;;;;-14.25;75.41;102172.37;1871341;75;20209;-43
2021/01/21 08:16:52;;;;;;;;;;;;;;;-13.96;75.11;102169.44;1868643;75;20241;-43
2021/01/21 08:19:20;;;;;;;;;;;;;;;-13.68;74.90;102162.73;1855611;75;20500;-44
2021/01/21 08:21:48;;;;;;;;;;;;;;;-13.59;74.13;102163.69;1872963;75;20476;-43
2021/01/21 08:24:16;;;;;;;;;;;;;;;-13.48;73.54;102159.72;1877487;75;20290;-43
2021/01/21 08:26:43;;;;;;;;;;;;;;;-13.38;72.92;102153.23;1880334;75;20124;-43
2021/01/21 08:29:15;;;;;;;;;;;;;;;-13.13;72.78;102143.99;1876943;75;20168;-43
2021/01/21 08:31:46;;;;;;;;;;;;;;;-12.69;72.80;102140.78;1879379;75;20195;-43
2021/01/21 08:34:23;;;;;;;;;;;;;;;-12.45;71.82;102141.38;1903070;75;20160;-42
2021/01/21 08:37:02;;;;;;;;;;;;;;;-12.36;70.85;102136.86;1869924;75;20472;-43
2021/01/21 08:39:30;;;;;;;;;;;;;;;-12.28;70.18;102136.34;1870219;75;20333;-43
2021/01/21 08:41:59;;;;;;;;;;;;;;;-11.98;70.04;102130.79;1854933;75;20283;-43
2021/01/21 08:44:26;;;;;;;;;;;;;;;-11.65;69.58;102132.69;1874792;75;20166;-43
2021/01/21 08:46:58;;;;;;;;;;;;;;;-11.51;68.88;102134.87;1872508;75;20208;-43
2021/01/21 08:49:29;;;;;;;;;;;;;;;-11.57;67.97;102130.51;1875411;75;20143;-43
2021/01/21 08:52:09;;;;;;;;;;;;;;;-11.71;67.41;102134.27;1873872;75;20485;-43
2021/01/21 08:54:53;;;;;;;;;;;;;;;-11.81;67.30;102130.37;1870077;75;20440;-42
2021/01/21 08:57:23;;;;;;;;;;;;;;;-12.04;66.87;102130.20;1879093;75;20292;-43
2021/01/21 08:59:51;;;;;;;;;;;;;;;-12.36;67.00;102125.48;1870758;75;20187;-43
2021/01/21 09:02:41;;;;;;;;;;;;;;;-12.39;67.34;102127.70;1873489;75;20183;-44
2021/01/21 09:05:12;;;;;;;;;;;;;;;-12.25;67.62;102121.45;1871207;75;20183;-43
2021/01/21 09:07:40;;;;;;;;;;;;;;;-12.20;67.81;102113.94;1873008;75;20197;-43
2021/01/21 09:10:11;;;;;;;;;;;;;;;-11.94;68.50;102107.20;1873659;75;20226;-54
2021/01/21 09:12:42;;;;;;;;;;;;;;;-11.67;68.14;102101.29;1874017;75;20280;-43
2021/01/21 09:15:13;;;;;;;;;;;;;;;-11.48;68.15;102100.09;1877171;75;20280;-43
2021/01/21 09:17:41;;;;;;;;;;;;;;;-11.31;68.13;102098.41;1870050;75;20177;-43
2021/01/21 09:20:20;;;;;;;;;;;;;;;-11.13;67.92;102090.70;1871637;75;20142;-43
2021/01/21 09:22:50;;;;;;;;;;;;;;;-11.02;67.71;102097.25;1874426;75;20128;-43
2021/01/21 09:25:25;;;;;;;;;;;;;;;-11.03;67.01;102093.34;1872692;75;20154;-43
2021/01/21 09:27:55;;;;;;;;;;;;;;;-11.07;66.80;102090.88;1871020;75;20281;-44
2021/01/21 09:30:23;;;;;;;;;;;;;;;-10.96;67.09;102081.34;1867111;75;20162;-43
2021/01/21 09:32:51;;;;;;;;;;;;;;;-10.76;67.16;102072.16;1867658;75;20186;-43
2021/01/21 09:35:20;;;;;;;;;;;;;;;-10.64;66.79;102066.91;1869436;75;20466;-43
2021/01/21 09:37:49;;;;;;;;;;;;;;;-10.68;66.39;102066.10;1873295;75;20141;-44
2021/01/21 09:40:20;;;;;;;;;;;;;;;-10.76;66.29;102059.48;1868860;75;20386;-43
2021/01/21 09:42:54;;;;;;;;;;;;;;;-10.69;66.71;102054.19;1866833;75;20273;-43
2021/01/21 09:45:21;;;;;;;;;;;;;;;-10.51;66.71;102056.73;1874363;75;20481;-42
2021/01/21 09:47:52;;;;;;;;;;;;;;;-10.39;66.64;102050.95;1868763;75;20539;-43
2021/01/21 09:50:21;;;;;;;;;;;;;;;-10.26;66.66;102048.75;1881551;75;20176;-45
2021/01/21 09:52:49;;;;;;;;;;;;;;;-10.08;66.46;102036.36;1870666;75;20192;-43
2021/01/21 09:55:17;;;;;;;;;;;;;;;-9.93;66.14;102039.33;1866294;75;20389;-42
2021/01/21 09:57:45;;;;;;;;;;;;;;;-9.78;66.01;102034.31;1873117;75;20199;-43
2021/01/21 10:00:14;;;;;;;;;;;;;;;-9.68;65.86;102025.44;1891073;75;20471;-44
2021/01/21 10:02:42;;;;;;;;;;;;;;;-9.59;65.53;102031.69;1870581;75;20202;-43
2021/01/21 10:05:13;;;;;;;;;;;;;;;-9.56;65.33;102020.50;1874874;75;20393;-43
2021/01/21 10:07:41;;;;;;;;;;;;;;;-9.45;65.38;102018.10;1870491;75;20203;-43
2021/01/21 10:10:10;;;;;;;;;;;;;;;-9.39;65.05;102011.41;1870037;75;20170;-43
2021/01/21 10:12:38;;;;;;;;;;;;;;;-9.37;64.82;102008.59;1873340;75;20124;-43
2021/01/21 10:15:08;;;;;;;;;;;;;;;-9.32;64.50;101999.73;1874485;75;20221;-43
2021/01/21 10:17:36;;;;;;;;;;;;;;;-9.22;64.40;102000.98;1872311;75;20244;-43
2021/01/21 10:20:06;;;;;;;;;;;;;;;-9.11;64.16;101992.97;1871866;75;20228;-43
2021/01/21 10:22:34;;;;;;;;;;;;;;;-9.11;64.14;101986.63;1868448;75;20193;-43
2021/01/21 10:26:51;;;;;;;;;;;;;;;-8.81;63.76;101978.97;1897604;74;20283;-44
2021/01/21 10:29:19;;;;;;;;;;;;;;;-8.72;63.64;101968.26;1861147;75;20256;-44
2021/01/21 10:31:48;;;;;;;;;;;;;;;-8.56;63.67;101977.62;1877436;75;20302;-44
2021/01/21 10:34:16;;;;;;;;;;;;;;;-8.37;63.19;101976.16;1876166;75;20345;-44
2021/01/21 10:36:44;;;;;;;;;;;;;;;-8.43;62.37;101973.13;1875623;75;20147;-44
2021/01/21 10:39:12;;;;;;;;;;;;;;;-8.59;62.56;101968.47;1873897;75;20138;-43
2021/01/21 10:41:39;;;;;;;;;;;;;;;-8.54;62.73;101959.97;1871130;75;20163;-43
2021/01/21 10:44:07;;;;;;;;;;;;;;;-8.35;62.92;101961.03;1871158;75;20206;-43
2021/01/21 10:46:35;;;;;;;;;;;;;;;-8.21;62.54;101945.16;1873271;75;20164;-44
2021/01/21 10:49:03;;;;;;;;;;;;;;;-8.16;62.21;101938.39;1875163;75;20475;-43
2021/01/21 10:51:32;;;;;;;;;;;;;;;-8.12;62.13;101934.41;1872521;75;20251;-43
2021/01/21 10:53:59;;;;;;;;;;;;;;;-8.14;61.88;101925.37;1873786;75;20159;-43
2021/01/21 10:56:29;;;;;;;;;;;;;;;-8.18;61.37;101920.84;1870514;75;20534;-44
2021/01/21 10:58:57;;;;;;;;;;;;;;;-8.20;61.64;101920.20;1874281;75;20537;-43
2021/01/21 11:01:25;;;;;;;;;;;;;;;-8.20;61.37;101918.55;1871465;75;20182;-43
2021/01/21 11:03:55;;;;;;;;;;;;;;;-8.25;61.25;101919.86;1874806;75;20604;-43
2021/01/21 11:06:23;;;;;;;;;;;;;;;-8.28;61.31;101917.48;1870282;75;20182;-43
2021/01/21 11:08:51;;;;;;;;;;;;;;;-8.35;61.19;101915.25;1871266;75;20214;-43
2021/01/21 11:11:19;;;;;;;;;;;;;;;-8.39;61.62;101917.03;1870764;75;20212;-44
2021/01/21 11:13:49;;;;;;;;;;;;;;;-8.22;61.95;101906.50;1824516;75;20140;-43
2021/01/21 11:16:18;;;;;;;;;;;;;;;-8.15;61.81;101892.22;1875131;75;20427;-44
2021/01/21 11:18:47;;;;;;;;;;;;;;;-8.11;61.90;101887.86;1872469;75;20184;-43
2021/01/21 11:21:17;;;;;;;;;;;;;;;-8.09;61.73;101883.41;1877286;75;20200;-43
2021/01/21 11:23:46;;;;;;;;;;;;;;;-8.09;61.66;101882.13;1871772;75;20576;-43
2021/01/21 11:26:13;;;;;;;;;;;;;;;-8.17;61.64;101884.46;1868136;75;20288;-43
2021/01/21 11:28:41;;;;;;;;;;;;;;;-8.13;61.81;101871.20;1870335;75;20161;-43
2021/01/21 11:31:10;;;;;;;;;;;;;;;-8.04;62.16;101873.56;1873375;75;20213;-43
2021/01/21 11:33:41;;;;;;;;;;;;;;;-7.87;62.40;101876.98;1874457;75;20222;-46
2021/01/21 11:36:09;;;;;;;;;;;;;;;-7.76;61.89;101880.36;1874217;75;20288;-43
2021/01/21 11:38:36;;;;;;;;;;;;;;;-7.67;62.08;101871.73;1875711;75;20193;-43
2021/01/21 11:41:04;;;;;;;;;;;;;;;-7.57;62.04;101880.06;1873282;75;20172;-43
2021/01/21 11:43:34;;;;;;;;;;;;;;;-7.55;61.87;101875.98;1870422;75;20281;-44
2021/01/21 11:46:01;;;;;;;;;;;;;;;-7.55;61.48;101865.80;1872095;75;20199;-43
2021/01/21 11:48:29;;;;;;;;;;;;;;;-7.58;61.58;101870.66;1871110;75;20226;-42
2021/01/21 11:50:58;;;;;;;;;;;;;;;-7.61;61.32;101865.35;1883333;75;20180;-41
2021/01/21 11:53:26;;;;;;;;;;;;;;;-7.74;61.37;101860.59;1875607;75;21068;-41
2021/01/21 11:55:54;;;;;;;;;;;;;;;-7.76;61.73;101853.25;1878345;75;20201;-43
2021/01/21 11:58:22;;;;;;;;;;;;;;;-7.87;61.65;101855.36;1871379;75;20379;-42
2021/01/21 12:00:52;;;;;;;;;;;;;;;-8.10;61.81;101853.64;1877327;75;20191;-42
2021/01/21 12:03:21;;;;;;;;;;;;;;;-8.29;62.30;101853.39;1871360;75;20174;-44
2021/01/21 12:05:48;;;;;;;;;;;;;;;-8.48;62.77;101854.56;1874001;75;20467;-41
2021/01/21 12:08:22;;;;;;;;;;;;;;;-8.68;63.25;101852.12;1870253;75;20351;-42
2021/01/21 12:10:50;;;;;;;;;;;;;;;-8.77;63.79;101856.47;1870497;75;20189;-42
2021/01/21 12:13:17;;;;;;;;;;;;;;;-8.79;64.24;101857.99;1870129;75;20455;-43
2021/01/21 12:15:45;;;;;;;;;;;;;;;-8.77;64.62;101845.42;1873062;75;20475;-44
2021/01/21 12:18:14;;;;;;;;;;;;;;;-8.72;65.11;101848.81;1868299;75;20200;-42
2021/01/21 12:20:44;;;;;;;;;;;;;;;-8.66;65.17;101855.64;1872313;75;20218;-43
2021/01/21 12:23:13;;;;;;;;;;;;;;;-8.60;65.34;101848.91;1877117;75;20175;-43
2021/01/21 12:25:41;;;;;;;;;;;;;;;-8.58;65.20;101847.35;1870673;75;20456;-42
2021/01/21 12:28:10;;;;;;;;;;;;;;;-8.56;65.30;101855.61;1875587;75;20186;-43
2021/01/21 12:30:40;;;;;;;;;;;;;;;-8.54;65.32;101854.09;1823086;75;20225;-43
2021/01/21 12:33:09;;;;;;;;;;;;;;;-8.50;65.43;101857.73;1825998;75;20220;-43
2021/01/21 12:35:40;;;;;;;;;;;;;;;-8.48;65.47;101849.86;1869341;75;20887;-43
2021/01/21 12:38:13;;;;;;;;;;;;;;;-8.53;65.44;101844.78;1871499;75;20221;-43
2021/01/21 12:41:15;;;;;;;;;;;;;;;-8.57;65.61;101852.95;1856163;75;20124;-40
2021/01/21 12:43:43;;;;;;;;;;;;;;;-8.57;65.83;101846.59;1870395;75;20137;-43
2021/01/21 12:46:11;;;;;;;;;;;;;;;-8.50;66.14;101847.19;1870067;75;20186;-47
2021/01/21 12:48:42;;;;;;;;;;;;;;;-8.42;65.94;101840.16;1818128;75;20197;-44
2021/01/21 12:51:18;;;;;;;;;;;;;;;-8.47;66.00;101835.97;1847680;75;20183;-43
2021/01/21 12:53:58;;;;;;;;;;;;;;;-8.47;66.23;101838.92;1829361;75;20275;-43
2021/01/21 12:56:27;;;;;;;;;;;;;;;-8.51;66.17;101832.70;1831839;75;20119;-40
2021/01/21 12:58:57;;;;;;;;;;;;;;;-8.54;66.17;101844.30;1842864;75;20354;-43